createdAt,value
2022-08-11T00:04:30.000Z,-73
2022-08-11T00:09:25.000Z,-73
2022-08-11T00:14:17.000Z,-73
2022-08-11T00:19:11.000Z,-74
2022-08-11T00:24:06.000Z,-73
2022-08-11T00:29:00.000Z,-74
2022-08-11T00:33:54.000Z,-74
2022-08-11T00:38:48.000Z,-73
2022-08-11T00:43:43.000Z,-77
2022-08-11T00:48:38.000Z,-73
2022-08-11T00:53:32.000Z,-73
2022-08-11T00:58:27.000Z,-76
2022-08-11T01:03:21.000Z,-73
2022-08-11T01:08:16.000Z,-78
2022-08-11T01:13:10.000Z,-72
2022-08-11T01:18:04.000Z,-72
2022-08-11T01:22:59.000Z,-74
2022-08-11T01:27:53.000Z,-73
2022-08-11T01:32:47.000Z,-73
2022-08-11T01:37:42.000Z,-72
2022-08-11T01:42:36.000Z,-73
2022-08-11T01:47:31.000Z,-73
2022-08-11T01:52:25.000Z,-73
2022-08-11T01:57:19.000Z,-73
2022-08-11T02:02:13.000Z,-74
2022-08-11T02:07:05.000Z,-73
2022-08-11T02:12:00.000Z,-73
2022-08-11T02:16:54.000Z,-73
2022-08-11T02:21:48.000Z,-73
2022-08-11T02:26:43.000Z,-75
2022-08-11T02:31:37.000Z,-73
2022-08-11T02:36:32.000Z,-72
2022-08-11T02:41:24.000Z,-73
2022-08-11T02:46:19.000Z,-74
2022-08-11T02:51:13.000Z,-77
2022-08-11T02:56:08.000Z,-72
2022-08-11T03:01:03.000Z,-72
2022-08-11T03:05:56.000Z,-73
2022-08-11T03:10:50.000Z,-72
2022-08-11T03:15:44.000Z,-76
2022-08-11T03:20:39.000Z,-74
2022-08-11T03:25:34.000Z,-73
2022-08-11T03:30:28.000Z,-73
2022-08-11T03:35:23.000Z,-73
2022-08-11T03:40:18.000Z,-72
2022-08-11T03:45:11.000Z,-73
2022-08-11T03:50:05.000Z,-73
2022-08-11T03:55:00.000Z,-75
2022-08-11T03:59:54.000Z,-72
2022-08-11T04:04:48.000Z,-80
2022-08-11T04:09:42.000Z,-75
2022-08-11T04:14:37.000Z,-73
2022-08-11T04:19:32.000Z,-73
2022-08-11T04:24:26.000Z,-73
2022-08-11T04:29:21.000Z,-73
2022-08-11T04:34:15.000Z,-73
2022-08-11T04:39:10.000Z,-72
2022-08-11T04:44:04.000Z,-73
2022-08-11T04:48:59.000Z,-74
2022-08-11T04:53:53.000Z,-72
2022-08-11T04:58:48.000Z,-74
2022-08-11T05:03:42.000Z,-74
2022-08-11T05:08:37.000Z,-74
2022-08-11T05:13:31.000Z,-75
2022-08-11T05:18:25.000Z,-73
2022-08-11T05:23:20.000Z,-79
2022-08-11T05:28:14.000Z,-72
2022-08-11T05:33:08.000Z,-74
2022-08-11T05:38:03.000Z,-72
2022-08-11T05:42:57.000Z,-73
2022-08-11T05:47:52.000Z,-73
2022-08-11T05:52:46.000Z,-74
2022-08-11T05:57:40.000Z,-75
2022-08-11T06:02:35.000Z,-73
2022-08-11T06:07:30.000Z,-74
2022-08-11T06:12:24.000Z,-73
2022-08-11T06:17:19.000Z,-75
2022-08-11T06:22:14.000Z,-73
2022-08-11T06:27:09.000Z,-75
2022-08-11T06:32:04.000Z,-75
2022-08-11T06:36:59.000Z,-72
2022-08-11T06:41:52.000Z,-73
2022-08-11T06:46:47.000Z,-72
2022-08-11T06:51:41.000Z,-64
2022-08-11T06:56:37.000Z,-65
2022-08-11T07:01:34.000Z,-68
2022-08-11T07:06:26.000Z,-65
2022-08-11T07:11:21.000Z,-63
2022-08-11T07:16:16.000Z,-65
2022-08-11T07:21:11.000Z,-67
2022-08-11T07:26:06.000Z,-64
2022-08-11T07:31:00.000Z,-69
2022-08-11T07:35:55.000Z,-64
2022-08-11T07:40:50.000Z,-65
2022-08-11T07:45:44.000Z,-72
2022-08-11T07:50:39.000Z,-64
2022-08-11T07:55:34.000Z,-65
2022-08-11T08:00:28.000Z,-65
2022-08-11T08:05:23.000Z,-64
2022-08-11T08:10:17.000Z,-65
2022-08-11T08:15:09.000Z,-66
2022-08-11T08:20:04.000Z,-64
2022-08-11T08:24:59.000Z,-66
2022-08-11T08:29:54.000Z,-65
2022-08-11T08:34:49.000Z,-63
2022-08-11T08:39:44.000Z,-68
2022-08-11T08:44:39.000Z,-70
2022-08-11T08:49:34.000Z,-65
2022-08-11T08:54:29.000Z,-63
2022-08-11T08:59:23.000Z,-63
2022-08-11T09:04:18.000Z,-64
2022-08-11T09:09:13.000Z,-68
2022-08-11T09:14:07.000Z,-61
2022-08-11T09:19:02.000Z,-63
2022-08-11T09:23:57.000Z,-63
2022-08-11T09:28:52.000Z,-63
2022-08-11T09:33:47.000Z,-67
2022-08-11T09:38:40.000Z,-63
2022-08-11T09:43:35.000Z,-68
2022-08-11T09:48:31.000Z,-62
2022-08-11T09:53:27.000Z,-65
2022-08-11T09:58:23.000Z,-62
2022-08-11T10:03:20.000Z,-64
2022-08-11T10:08:15.000Z,-65
2022-08-11T10:13:14.000Z,-66
2022-08-11T10:18:07.000Z,-64
2022-08-11T10:23:02.000Z,-62
2022-08-11T10:27:57.000Z,-63
2022-08-11T10:32:53.000Z,-65
2022-08-11T10:37:47.000Z,-70
2022-08-11T10:42:42.000Z,-61
2022-08-11T10:47:37.000Z,-64
2022-08-11T10:52:32.000Z,-65
2022-08-11T10:57:27.000Z,-63
2022-08-11T11:02:22.000Z,-65
2022-08-11T11:07:17.000Z,-65
2022-08-11T11:12:12.000Z,-67
2022-08-11T11:17:08.000Z,-65
2022-08-11T11:22:03.000Z,-64
2022-08-11T11:26:58.000Z,-63
2022-08-11T11:31:53.000Z,-63
2022-08-11T11:36:48.000Z,-68
2022-08-11T11:41:42.000Z,-70
2022-08-11T11:46:37.000Z,-67
2022-08-11T11:51:32.000Z,-64
2022-08-11T11:56:27.000Z,-66
2022-08-11T12:01:22.000Z,-64
2022-08-11T12:06:16.000Z,-73
2022-08-11T12:11:12.000Z,-66
2022-08-11T12:16:07.000Z,-64
2022-08-11T12:21:01.000Z,-66
2022-08-11T12:25:56.000Z,-64
2022-08-11T12:30:51.000Z,-68
2022-08-11T12:35:46.000Z,-69
2022-08-11T12:40:39.000Z,-66
2022-08-11T12:45:34.000Z,-63
2022-08-11T12:50:30.000Z,-64
2022-08-11T12:55:24.000Z,-66
2022-08-11T13:00:19.000Z,-65
2022-08-11T13:05:14.000Z,-64
2022-08-11T13:10:08.000Z,-63
2022-08-11T13:15:02.000Z,-63
2022-08-11T13:19:57.000Z,-67
2022-08-11T13:24:52.000Z,-62
2022-08-11T13:29:47.000Z,-65
2022-08-11T13:34:42.000Z,-65
2022-08-11T13:39:37.000Z,-71
2022-08-11T13:44:32.000Z,-64
2022-08-11T13:49:27.000Z,-63
2022-08-11T13:54:22.000Z,-63
2022-08-11T13:59:17.000Z,-67
2022-08-11T14:04:11.000Z,-67
2022-08-11T14:09:06.000Z,-65
2022-08-11T14:14:01.000Z,-63
2022-08-11T14:18:56.000Z,-63
2022-08-11T14:23:51.000Z,-64
2022-08-11T14:28:46.000Z,-67
2022-08-11T14:33:41.000Z,-65
2022-08-11T14:38:36.000Z,-65
2022-08-11T14:43:31.000Z,-63
2022-08-11T14:48:26.000Z,-63
2022-08-11T14:53:21.000Z,-62
2022-08-11T14:58:16.000Z,-65
2022-08-11T15:03:11.000Z,-64
2022-08-11T15:08:06.000Z,-64
2022-08-11T15:13:00.000Z,-63
2022-08-11T15:17:55.000Z,-63
2022-08-11T15:22:50.000Z,-62
2022-08-11T15:27:45.000Z,-70
2022-08-11T15:32:40.000Z,-65
2022-08-11T15:37:35.000Z,-63
2022-08-11T15:42:30.000Z,-64
2022-08-11T15:47:25.000Z,-64
2022-08-11T15:52:19.000Z,-64
2022-08-11T15:57:13.000Z,-67
2022-08-11T16:02:07.000Z,-64
2022-08-11T16:07:02.000Z,-65
2022-08-11T16:11:56.000Z,-64
2022-08-11T16:16:50.000Z,-62
2022-08-11T16:21:45.000Z,-64
2022-08-11T16:26:39.000Z,-70
2022-08-11T16:31:34.000Z,-66
2022-08-11T16:36:29.000Z,-64
2022-08-11T16:41:24.000Z,-64
2022-08-11T16:46:19.000Z,-72
2022-08-11T16:51:11.000Z,-66
2022-08-11T16:56:06.000Z,-65
2022-08-11T17:01:00.000Z,-66
2022-08-11T17:05:55.000Z,-65
2022-08-11T17:10:50.000Z,-67
2022-08-11T17:15:45.000Z,-70
2022-08-11T17:20:40.000Z,-70
2022-08-11T17:25:34.000Z,-66
2022-08-11T17:30:29.000Z,-64
2022-08-11T17:35:23.000Z,-65
2022-08-11T17:40:17.000Z,-71
2022-08-11T17:45:12.000Z,-66
2022-08-11T17:50:06.000Z,-64
2022-08-11T17:55:01.000Z,-67
2022-08-11T17:59:56.000Z,-64
2022-08-11T18:04:49.000Z,-70
2022-08-11T18:09:43.000Z,-72
2022-08-11T18:14:38.000Z,-71
2022-08-11T18:19:33.000Z,-63
2022-08-11T18:24:27.000Z,-64
2022-08-11T18:29:21.000Z,-66
2022-08-11T18:34:16.000Z,-66
2022-08-11T18:39:10.000Z,-65
2022-08-11T18:44:05.000Z,-65
2022-08-11T18:48:59.000Z,-67
2022-08-11T18:53:54.000Z,-67
2022-08-11T18:58:48.000Z,-69
2022-08-11T19:03:43.000Z,-63
2022-08-11T19:08:37.000Z,-67
2022-08-11T19:13:32.000Z,-63
2022-08-11T19:18:27.000Z,-64
2022-08-11T19:23:20.000Z,-67
2022-08-11T19:28:15.000Z,-65
2022-08-11T19:33:10.000Z,-64
2022-08-11T19:38:04.000Z,-66
2022-08-11T19:42:59.000Z,-63
2022-08-11T19:47:53.000Z,-63
2022-08-11T19:52:48.000Z,-67
2022-08-11T19:57:42.000Z,-68
2022-08-11T20:02:37.000Z,-63
2022-08-11T20:07:32.000Z,-75
2022-08-11T20:12:27.000Z,-76
2022-08-11T20:17:21.000Z,-82
2022-08-11T20:22:16.000Z,-78
2022-08-11T20:27:09.000Z,-75
2022-08-11T20:32:04.000Z,-76
2022-08-11T20:36:58.000Z,-76
2022-08-11T20:41:50.000Z,-76
2022-08-11T20:46:45.000Z,-75
2022-08-11T20:51:39.000Z,-81
2022-08-11T20:56:34.000Z,-76
2022-08-11T21:01:29.000Z,-77
2022-08-11T21:06:23.000Z,-79
2022-08-11T21:11:16.000Z,-80
2022-08-11T21:16:11.000Z,-78
2022-08-11T21:21:06.000Z,-77
2022-08-11T21:26:00.000Z,-78
2022-08-11T21:30:55.000Z,-76
2022-08-11T21:35:49.000Z,-80
2022-08-11T21:40:43.000Z,-79
2022-08-11T21:45:38.000Z,-79
2022-08-11T21:50:32.000Z,-76
2022-08-11T21:55:27.000Z,-79
2022-08-11T22:00:21.000Z,-79
2022-08-11T22:05:16.000Z,-79
2022-08-11T22:10:11.000Z,-78
2022-08-11T22:15:06.000Z,-77
2022-08-11T22:20:00.000Z,-79
2022-08-11T22:24:55.000Z,-78
2022-08-11T22:29:49.000Z,-79
2022-08-11T22:34:44.000Z,-81
2022-08-11T22:39:38.000Z,-79
2022-08-11T22:44:33.000Z,-77
2022-08-11T22:49:28.000Z,-78
2022-08-11T22:54:22.000Z,-86
2022-08-11T22:59:17.000Z,-83
2022-08-11T23:04:12.000Z,-80
2022-08-11T23:09:06.000Z,-77
2022-08-11T23:14:01.000Z,-78
2022-08-11T23:18:55.000Z,-77
2022-08-11T23:23:50.000Z,-79
2022-08-11T23:28:44.000Z,-81
2022-08-11T23:33:39.000Z,-79
2022-08-11T23:38:34.000Z,-79
2022-08-11T23:43:28.000Z,-78
2022-08-11T23:48:24.000Z,-77
2022-08-11T23:53:18.000Z,-80
2022-08-11T23:58:13.000Z,-79
